Time;durP1;ratioP1;P1;durP2;ratioP2;P2;SDS_P1;SDS_P2;PMS_P1;PMS_P2;Temp;Humidity;BMP_temperature;BMP_pressure;BME280_temperature;BME280_humidity;BME280_pressure;Samples;Min_cycle;Max_cycle;Signal;HPM_P1;HPM_P2
2024/01/07 00:02:24;;;;;;;;;;;282.00;2278.40;;;;;;4973837;28;20327;-76
2024/01/07 00:04:50;;;;;;;;;;;282.00;2278.40;;;;;;4975406;28;20377;-75
2024/01/07 00:07:16;;;;;;;;;;;282.00;2278.40;;;;;;4974045;28;19917;-81
2024/01/07 00:09:41;;;;;;;;;;;281.80;2278.40;;;;;;4974167;28;20354;-80
2024/01/07 00:12:07;;;;;;;;;;;281.70;2278.40;;;;;;4954221;28;19969;-76
2024/01/07 00:14:32;;;;;;;;;;;281.70;2278.40;;;;;;4956246;28;20376;-76
2024/01/07 00:16:58;;;;;;;;;;;281.70;2278.40;;;;;;4973652;28;20359;-76
2024/01/07 00:19:24;;;;;;;;;;;281.70;2278.40;;;;;;4974209;28;19925;-77
2024/01/07 00:21:49;;;;;;;;;;;281.60;2278.40;;;;;;4973007;28;20386;-76
2024/01/07 00:24:15;;;;;;;;;;;281.60;2278.40;;;;;;4973736;28;19910;-77
2024/01/07 00:26:41;;;;;;;;;;;256.90;2252.80;;;;;;4956750;28;19913;-78
2024/01/07 00:29:06;;;;;;;;;;;281.60;2278.40;;;;;;4973641;28;19932;-78
2024/01/07 00:31:32;;;;;;;;;;;281.60;2278.40;;;;;;4957669;28;19906;-78
2024/01/07 00:33:58;;;;;;;;;;;281.60;2278.40;;;;;;4958596;28;19906;-77
2024/01/07 00:36:23;;;;;;;;;;;281.60;2278.40;;;;;;4975430;28;20320;-76
2024/01/07 00:38:49;;;;;;;;;;;281.60;2278.40;;;;;;4953951;28;19913;-79
2024/01/07 00:41:14;;;;;;;;;;;256.80;2252.80;;;;;;4959811;28;19919;-77
2024/01/07 00:43:40;;;;;;;;;;;281.60;2278.40;;;;;;4977027;28;19912;-78
2024/01/07 00:46:06;;;;;;;;;;;281.60;2278.40;;;;;;4959581;28;19913;-78
2024/01/07 00:48:32;;;;;;;;;;;281.60;2278.40;;;;;;4959327;28;20249;-77
2024/01/07 00:50:57;;;;;;;;;;;281.70;2278.40;;;;;;4976606;28;20355;-78
2024/01/07 00:53:23;;;;;;;;;;;281.60;2278.40;;;;;;4976911;28;20326;-79
2024/01/07 00:55:48;;;;;;;;;;;281.60;2278.40;;;;;;4959320;28;19906;-78
2024/01/07 00:58:14;;;;;;;;;;;281.60;2278.40;;;;;;4959347;28;19914;-77
2024/01/07 01:00:40;;;;;;;;;;;281.60;2278.40;;;;;;4976966;28;19941;-77
2024/01/07 01:03:05;;;;;;;;;;;281.60;2278.40;;;;;;4976514;28;19910;-77
2024/01/07 01:05:31;;;;;;;;;;;281.60;2278.40;;;;;;4977085;28;19925;-78
2024/01/07 01:07:56;;;;;;;;;;;256.90;2252.80;;;;;;4959985;28;20359;-77
2024/01/07 01:10:22;;;;;;;;;;;256.90;2252.80;;;;;;4959989;28;19918;-78
2024/01/07 01:12:47;;;;;;;;;;;256.90;2252.80;;;;;;4959545;28;20392;-78
2024/01/07 01:15:16;;;;;;;;;;;256.90;2252.80;;;;;;4976292;28;19906;-77
2024/01/07 01:17:42;;;;;;;;;;;256.90;2252.80;;;;;;4977136;28;20451;-78
2024/01/07 01:20:08;;;;;;;;;;;256.90;2252.80;;;;;;4977020;28;19941;-77
2024/01/07 01:22:33;;;;;;;;;;;256.90;2252.80;;;;;;4976898;28;20005;-79
2024/01/07 01:24:59;;;;;;;;;;;256.90;2252.80;;;;;;4976841;28;19949;-78
2024/01/07 01:27:25;;;;;;;;;;;256.90;2252.80;;;;;;4977390;28;20356;-78
2024/01/07 01:29:51;;;;;;;;;;;256.90;2252.80;;;;;;4977096;28;19906;-76
2024/01/07 01:32:16;;;;;;;;;;;256.90;2252.80;;;;;;4959878;28;19910;-77
2024/01/07 01:34:42;;;;;;;;;;;281.60;2278.40;;;;;;4959877;28;20324;-78
2024/01/07 01:37:08;;;;;;;;;;;281.60;2278.40;;;;;;4959315;28;20363;-79
2024/01/07 01:39:33;;;;;;;;;;;281.60;2278.40;;;;;;4959457;28;19906;-77
2024/01/07 01:41:59;;;;;;;;;;;281.60;2278.40;;;;;;4958473;28;20367;-79
2024/01/07 01:44:27;;;;;;;;;;;281.60;2278.40;;;;;;4975273;28;19906;-77
2024/01/07 01:46:52;;;;;;;;;;;281.60;2278.40;;;;;;4959573;28;19907;-77
2024/01/07 01:49:18;;;;;;;;;;;281.60;2278.40;;;;;;4959239;28;19913;-79
2024/01/07 01:51:44;;;;;;;;;;;281.60;2278.40;;;;;;4946638;28;20264;-78
2024/01/07 01:54:10;;;;;;;;;;;281.60;2278.40;;;;;;4959126;28;19917;-77
2024/01/07 01:56:35;;;;;;;;;;;281.60;2278.40;;;;;;4976703;28;19917;-77
2024/01/07 01:59:01;;;;;;;;;;;281.60;2278.40;;;;;;4976250;28;19906;-79
2024/01/07 02:01:27;;;;;;;;;;;281.60;2278.40;;;;;;4976838;28;19910;-77
2024/01/07 02:03:53;;;;;;;;;;;281.70;2278.40;;;;;;4967624;28;19913;-77
2024/01/07 02:06:20;;;;;;;;;;;281.80;2278.40;;;;;;4987490;28;19905;-77
2024/01/07 02:08:45;;;;;;;;;;;281.70;2278.40;;;;;;4960243;28;19956;-78
2024/01/07 02:11:18;;;;;;;;;;;281.70;2278.40;;;;;;4958886;28;19949;-78
2024/01/07 02:13:44;;;;;;;;;;;281.70;2278.40;;;;;;4958869;28;20279;-78
2024/01/07 02:16:09;;;;;;;;;;;281.80;2278.40;;;;;;4974837;28;19939;-80
2024/01/07 02:18:35;;;;;;;;;;;281.80;2278.40;;;;;;4958675;28;19906;-79
2024/01/07 02:21:00;;;;;;;;;;;281.70;2278.40;;;;;;4958391;28;19921;-77
2024/01/07 02:23:26;;;;;;;;;;;281.70;2278.40;;;;;;4975732;28;19910;-76
2024/01/07 02:25:51;;;;;;;;;;;281.70;2278.40;;;;;;4975834;28;19906;-78
2024/01/07 02:28:17;;;;;;;;;;;281.70;2278.40;;;;;;4957708;28;19917;-78
2024/01/07 02:30:43;;;;;;;;;;;281.70;2278.40;;;;;;4975830;28;19960;-77
2024/01/07 02:33:08;;;;;;;;;;;281.60;2278.40;;;;;;4957730;28;20302;-77
2024/01/07 02:35:34;;;;;;;;;;;281.70;2278.40;;;;;;4958476;28;19913;-78
2024/01/07 02:37:59;;;;;;;;;;;281.70;2278.40;;;;;;4957540;28;19921;-76
2024/01/07 02:40:25;;;;;;;;;;;281.70;2278.40;;;;;;4958053;28;20253;-79
2024/01/07 02:42:51;;;;;;;;;;;281.60;2278.40;;;;;;4975621;28;19906;-78
2024/01/07 02:45:16;;;;;;;;;;;281.60;2278.40;;;;;;4975600;28;19910;-78
2024/01/07 02:47:42;;;;;;;;;;;256.90;2252.80;;;;;;4975669;28;19960;-78
2024/01/07 02:50:08;;;;;;;;;;;256.90;2252.80;;;;;;4975365;28;19997;-78
2024/01/07 02:52:33;;;;;;;;;;;256.70;2252.80;;;;;;4970195;28;20005;-77
2024/01/07 02:55:01;;;;;;;;;;;256.60;2252.80;;;;;;4957831;28;19906;-78
2024/01/07 02:57:27;;;;;;;;;;;256.50;2252.80;;;;;;4974994;28;19914;-78
2024/01/07 02:59:53;;;;;;;;;;;256.70;2252.80;;;;;;4958123;28;19957;-77
2024/01/07 03:02:18;;;;;;;;;;;256.70;2252.80;;;;;;4975237;28;19906;-78
2024/01/07 03:04:44;;;;;;;;;;;256.80;2252.80;;;;;;4975075;28;19906;-78
2024/01/07 03:07:09;;;;;;;;;;;256.80;2252.80;;;;;;4957932;28;19906;-78
2024/01/07 03:09:35;;;;;;;;;;;256.80;2252.80;;;;;;4957402;28;19957;-77
2024/01/07 03:12:01;;;;;;;;;;;256.80;2252.80;;;;;;4957369;28;19906;-77
2024/01/07 03:14:26;;;;;;;;;;;256.90;2252.80;;;;;;4958181;28;20391;-79
2024/01/07 03:16:52;;;;;;;;;;;256.80;2252.80;;;;;;4957680;28;19921;-78
2024/01/07 03:19:18;;;;;;;;;;;256.60;2252.80;;;;;;4957844;28;19975;-78
2024/01/07 03:21:43;;;;;;;;;;;256.50;2252.80;;;;;;4974855;28;19918;-79
2024/01/07 03:24:10;;;;;;;;;;;256.50;2252.80;;;;;;4957457;28;20005;-77
2024/01/07 03:26:36;;;;;;;;;;;256.40;2252.80;;;;;;4974688;28;19960;-78
2024/01/07 03:29:02;;;;;;;;;;;256.50;2252.80;;;;;;4957654;28;19910;-77
2024/01/07 03:31:28;;;;;;;;;;;256.30;2252.80;;;;;;4974566;28;19917;-77
2024/01/07 03:33:53;;;;;;;;;;;256.40;2252.80;;;;;;4975033;28;19910;-77
2024/01/07 03:36:19;;;;;;;;;;;256.50;2252.80;;;;;;4956931;28;19996;-78
2024/01/07 03:38:45;;;;;;;;;;;256.50;2252.80;;;;;;4957298;28;19906;-78
2024/01/07 03:41:15;;;;;;;;;;;256.50;2252.80;;;;;;4957599;28;19906;-77
2024/01/07 03:43:41;;;;;;;;;;;256.50;2252.80;;;;;;4974850;28;19952;-78
2024/01/07 03:46:06;;;;;;;;;;;256.40;2252.80;;;;;;4974649;28;19910;-77
2024/01/07 03:48:32;;;;;;;;;;;256.40;2252.80;;;;;;4975036;28;19921;-77
2024/01/07 03:50:58;;;;;;;;;;;256.40;2252.80;;;;;;4957247;28;19906;-77
2024/01/07 03:53:23;;;;;;;;;;;256.30;2252.80;;;;;;4975019;28;20423;-78
2024/01/07 03:55:49;;;;;;;;;;;256.30;2252.80;;;;;;4957349;28;20379;-77
2024/01/07 03:58:14;;;;;;;;;;;256.40;2252.80;;;;;;4974678;28;20375;-77
2024/01/07 04:00:40;;;;;;;;;;;256.40;2252.80;;;;;;4957089;28;19906;-77
2024/01/07 04:03:06;;;;;;;;;;;256.30;2252.80;;;;;;4957694;28;19960;-78
2024/01/07 04:05:33;;;;;;;;;;;256.30;2252.80;;;;;;4957610;28;19913;-78
2024/01/07 04:08:00;;;;;;;;;;;256.20;2252.80;;;;;;4978429;28;19913;-77
2024/01/07 04:10:26;;;;;;;;;;;256.30;2252.80;;;;;;4961323;28;20386;-78
2024/01/07 04:12:51;;;;;;;;;;;256.30;2252.80;;;;;;4957744;29;19907;-78
2024/01/07 04:15:17;;;;;;;;;;;256.40;2252.80;;;;;;4961080;28;19912;-78
2024/01/07 04:17:42;;;;;;;;;;;256.30;2252.80;;;;;;4978144;28;19914;-78
2024/01/07 04:20:08;;;;;;;;;;;256.30;2252.80;;;;;;4977931;28;19906;-78
2024/01/07 04:22:34;;;;;;;;;;;256.30;2252.80;;;;;;4960610;28;19926;-78
2024/01/07 04:24:59;;;;;;;;;;;256.30;2252.80;;;;;;4960813;28;20367;-78
2024/01/07 04:27:25;;;;;;;;;;;256.40;2252.80;;;;;;4960965;28;19906;-78
2024/01/07 04:29:51;;;;;;;;;;;256.30;2252.80;;;;;;4960584;28;20378;-78
2024/01/07 04:32:16;;;;;;;;;;;256.30;2252.80;;;;;;4960859;28;19917;-80
2024/01/07 04:34:42;;;;;;;;;;;256.20;2252.80;;;;;;4960625;28;19906;-80
2024/01/07 04:37:07;;;;;;;;;;;256.30;2252.80;;;;;;4960419;28;19914;-78
2024/01/07 04:39:33;;;;;;;;;;;256.40;2252.80;;;;;;4960504;28;20356;-77
2024/01/07 04:41:58;;;;;;;;;;;256.30;2252.80;;;;;;4977983;28;19974;-77
2024/01/07 04:44:24;;;;;;;;;;;256.40;2252.80;;;;;;4960072;28;19965;-78
2024/01/07 04:46:50;;;;;;;;;;;256.50;2252.80;;;;;;4977784;28;19960;-78
2024/01/07 04:49:15;;;;;;;;;;;256.40;2252.80;;;;;;4977924;28;20312;-77
2024/01/07 04:51:41;;;;;;;;;;;256.30;2252.80;;;;;;4977740;28;19941;-79
2024/01/07 04:54:07;;;;;;;;;;;256.20;2252.80;;;;;;4960250;28;20446;-79
2024/01/07 04:56:32;;;;;;;;;;;256.20;2252.80;;;;;;4977700;28;19917;-78
2024/01/07 04:58:58;;;;;;;;;;;256.20;2252.80;;;;;;4960055;28;20411;-78
2024/01/07 05:01:24;;;;;;;;;;;256.20;2252.80;;;;;;4960173;28;19913;-78
2024/01/07 05:03:49;;;;;;;;;;;256.20;2252.80;;;;;;4959904;28;19906;-79
2024/01/07 05:06:15;;;;;;;;;;;256.30;2252.80;;;;;;4960405;28;19921;-79
2024/01/07 05:08:41;;;;;;;;;;;256.30;2252.80;;;;;;4976118;28;19961;-79
2024/01/07 05:11:07;;;;;;;;;;;256.30;2252.80;;;;;;4960095;28;19906;-79
2024/01/07 05:13:33;;;;;;;;;;;256.30;2252.80;;;;;;4977235;28;20268;-78
2024/01/07 05:15:58;;;;;;;;;;;256.30;2252.80;;;;;;4960093;28;19960;-79
2024/01/07 05:18:24;;;;;;;;;;;256.30;2252.80;;;;;;4969497;28;20283;-78
2024/01/07 05:20:50;;;;;;;;;;;256.30;2252.80;;;;;;4994338;28;19965;-77
2024/01/07 05:23:16;;;;;;;;;;;256.30;2252.80;;;;;;4966679;28;20336;-79
2024/01/07 05:25:45;;;;;;;;;;;256.30;2252.80;;;;;;4959710;28;19993;-79
2024/01/07 05:28:11;;;;;;;;;;;256.30;2252.80;;;;;;4976828;28;20000;-79
2024/01/07 05:30:36;;;;;;;;;;;256.30;2252.80;;;;;;4976855;28;19941;-78
2024/01/07 05:33:02;;;;;;;;;;;256.40;2252.80;;;;;;4959161;28;20271;-78
2024/01/07 05:35:28;;;;;;;;;;;256.40;2252.80;;;;;;4959536;28;20375;-78
2024/01/07 05:37:53;;;;;;;;;;;256.40;2252.80;;;;;;4959413;28;19936;-78
2024/01/07 05:40:19;;;;;;;;;;;256.40;2252.80;;;;;;4959402;28;19906;-78
2024/01/07 05:42:45;;;;;;;;;;;256.40;2252.80;;;;;;4959192;28;20394;-78
2024/01/07 05:45:10;;;;;;;;;;;256.30;2252.80;;;;;;4957990;28;20375;-77
2024/01/07 05:47:36;;;;;;;;;;;256.20;2252.80;;;;;;4957653;28;19906;-80
2024/01/07 05:50:02;;;;;;;;;;;256.20;2252.80;;;;;;4976368;28;20360;-76
2024/01/07 05:52:27;;;;;;;;;;;256.20;2252.80;;;;;;4968045;28;20368;-77
2024/01/07 05:54:53;;;;;;;;;;;256.10;2252.80;;;;;;4975885;28;19910;-77
2024/01/07 05:57:19;;;;;;;;;;;256.10;2252.80;;;;;;4975560;28;20031;-75
2024/01/07 05:59:45;;;;;;;;;;;256.10;2252.80;;;;;;4958454;28;19913;-75
2024/01/07 06:02:10;;;;;;;;;;;256.10;2252.80;;;;;;4975486;28;19953;-75
2024/01/07 06:04:39;;;;;;;;;;;256.10;2252.80;;;;;;4976059;28;19997;-76
2024/01/07 06:07:06;;;;;;;;;;;256.10;2252.80;;;;;;4958418;28;19913;-78
2024/01/07 06:09:31;;;;;;;;;;;256.00;2252.80;;;;;;4975438;28;19943;-75
2024/01/07 06:11:58;;;;;;;;;;;256.20;2252.80;;;;;;4975586;28;19910;-78
2024/01/07 06:14:24;;;;;;;;;;;256.20;2252.80;;;;;;4958800;28;19906;-78
2024/01/07 06:16:50;;;;;;;;;;;256.20;2252.80;;;;;;4957899;28;19958;-79
2024/01/07 06:19:16;;;;;;;;;;;256.20;2252.80;;;;;;4975605;28;20000;-79
2024/01/07 06:21:43;;;;;;;;;;;256.20;2252.80;;;;;;4958149;28;20045;-77
2024/01/07 06:24:09;;;;;;;;;;;256.30;2252.80;;;;;;4949377;28;19910;-78
2024/01/07 06:26:34;;;;;;;;;;;256.30;2252.80;;;;;;4957278;28;19917;-78
2024/01/07 06:29:00;;;;;;;;;;;256.30;2252.80;;;;;;4956986;28;20381;-79
2024/01/07 06:31:26;;;;;;;;;;;256.40;2252.80;;;;;;4957988;28;20287;-79
2024/01/07 06:33:52;;;;;;;;;;;256.50;2252.80;;;;;;4957113;28;19910;-78
2024/01/07 06:36:18;;;;;;;;;;;256.40;2252.80;;;;;;4957784;28;19914;-76
2024/01/07 06:38:43;;;;;;;;;;;256.30;2252.80;;;;;;4974236;28;19917;-79
2024/01/07 06:41:10;;;;;;;;;;;256.40;2252.80;;;;;;4974755;28;19948;-78
2024/01/07 06:43:35;;;;;;;;;;;256.40;2252.80;;;;;;4974544;28;20284;-79
2024/01/07 06:46:01;;;;;;;;;;;256.30;2252.80;;;;;;4975276;28;19913;-79
2024/01/07 06:48:26;;;;;;;;;;;256.30;2252.80;;;;;;4957206;28;19906;-79
2024/01/07 06:50:52;;;;;;;;;;;256.30;2252.80;;;;;;4963314;28;20352;-82
2024/01/07 06:53:18;;;;;;;;;;;256.30;2252.80;;;;;;4974052;28;20016;-81
2024/01/07 06:55:43;;;;;;;;;;;256.20;2252.80;;;;;;4953740;29;19933;-78
2024/01/07 06:58:09;;;;;;;;;;;256.30;2252.80;;;;;;4969383;28;19960;-79
2024/01/07 07:00:34;;;;;;;;;;;256.30;2252.80;;;;;;4957560;28;19906;-79
2024/01/07 07:03:00;;;;;;;;;;;256.30;2252.80;;;;;;4959523;28;19960;-79
2024/01/07 07:05:26;;;;;;;;;;;256.40;2252.80;;;;;;4957432;28;19906;-79
2024/01/07 07:07:51;;;;;;;;;;;256.40;2252.80;;;;;;4972972;28;19917;-78
2024/01/07 07:10:17;;;;;;;;;;;256.50;2252.80;;;;;;4957096;28;20367;-78
2024/01/07 07:12:43;;;;;;;;;;;256.50;2252.80;;;;;;4957349;28;20301;-78
2024/01/07 07:15:09;;;;;;;;;;;256.50;2252.80;;;;;;4974189;28;19965;-79
2024/01/07 07:17:36;;;;;;;;;;;256.50;2252.80;;;;;;4957062;28;19960;-77
2024/01/07 07:20:02;;;;;;;;;;;256.50;2252.80;;;;;;4974473;28;19910;-79
2024/01/07 07:22:28;;;;;;;;;;;256.50;2252.80;;;;;;4956176;28;19922;-78
2024/01/07 07:24:54;;;;;;;;;;;256.60;2252.80;;;;;;4973664;28;19918;-76
2024/01/07 07:27:19;;;;;;;;;;;256.60;2252.80;;;;;;4974537;28;19917;-77
2024/01/07 07:29:45;;;;;;;;;;;256.70;2252.80;;;;;;4956553;28;19916;-78
2024/01/07 07:32:10;;;;;;;;;;;256.70;2252.80;;;;;;4956295;28;19916;-79
2024/01/07 07:34:36;;;;;;;;;;;256.70;2252.80;;;;;;4956211;28;19906;-79
2024/01/07 07:37:02;;;;;;;;;;;256.80;2252.80;;;;;;4956353;28;19918;-76
2024/01/07 07:39:28;;;;;;;;;;;256.90;2252.80;;;;;;4974222;28;19914;-76
2024/01/07 07:41:54;;;;;;;;;;;281.60;2278.40;;;;;;4975952;28;20375;-76
2024/01/07 07:44:19;;;;;;;;;;;281.60;2278.40;;;;;;4960792;28;19948;-78
2024/01/07 07:46:45;;;;;;;;;;;281.80;2278.40;;;;;;4978132;28;19906;-77
2024/01/07 07:49:11;;;;;;;;;;;281.80;2278.40;;;;;;4977928;28;19914;-77
2024/01/07 07:51:36;;;;;;;;;;;281.80;2278.40;;;;;;4978343;28;19917;-77
2024/01/07 07:54:03;;;;;;;;;;;281.80;2278.40;;;;;;4977994;28;19925;-77
2024/01/07 07:56:28;;;;;;;;;;;281.80;2278.40;;;;;;4957879;28;19913;-76
2024/01/07 07:58:54;;;;;;;;;;;281.70;2278.40;;;;;;4960568;28;19917;-77
2024/01/07 08:01:20;;;;;;;;;;;281.80;2278.40;;;;;;4960061;28;20325;-78
2024/01/07 08:03:45;;;;;;;;;;;281.70;2278.40;;;;;;4959741;28;19910;-76
2024/01/07 08:06:11;;;;;;;;;;;281.70;2278.40;;;;;;4977252;28;19917;-76
2024/01/07 08:08:37;;;;;;;;;;;281.60;2278.40;;;;;;4977323;28;19937;-78
2024/01/07 08:11:05;;;;;;;;;;;256.80;2252.80;;;;;;4961696;28;19910;-78
2024/01/07 08:13:31;;;;;;;;;;;256.90;2252.80;;;;;;4958017;28;19968;-80
2024/01/07 08:15:56;;;;;;;;;;;256.70;2252.80;;;;;;4955012;28;19949;-77
2024/01/07 08:18:22;;;;;;;;;;;256.70;2252.80;;;;;;4959711;28;19918;-77
2024/01/07 08:20:48;;;;;;;;;;;256.60;2252.80;;;;;;4959058;28;20441;-75
2024/01/07 08:23:13;;;;;;;;;;;256.60;2252.80;;;;;;4965538;28;20279;-76
2024/01/07 08:25:39;;;;;;;;;;;256.60;2252.80;;;;;;4958753;28;20292;-78
2024/01/07 08:28:05;;;;;;;;;;;256.60;2252.80;;;;;;4959894;28;20308;-79
2024/01/07 08:30:30;;;;;;;;;;;256.80;2252.80;;;;;;4976869;28;19914;-80
2024/01/07 08:32:56;;;;;;;;;;;256.90;2252.80;;;;;;4978448;28;19906;-80
2024/01/07 08:35:22;;;;;;;;;;;281.60;2278.40;;;;;;4978818;28;19910;-75
2024/01/07 08:37:47;;;;;;;;;;;256.80;2252.80;;;;;;4995962;28;19918;-78
2024/01/07 08:40:13;;;;;;;;;;;281.70;2278.40;;;;;;4958551;28;19926;-78
2024/01/07 08:42:39;;;;;;;;;;;281.60;2278.40;;;;;;4959879;28;19934;-74
2024/01/07 08:45:05;;;;;;;;;;;281.60;2278.40;;;;;;4976845;28;19918;-75
2024/01/07 08:47:31;;;;;;;;;;;281.70;2278.40;;;;;;4976521;28;20364;-78
2024/01/07 08:49:57;;;;;;;;;;;281.70;2278.40;;;;;;4959542;28;20384;-78
2024/01/07 08:52:22;;;;;;;;;;;281.90;2278.40;;;;;;4961152;28;19910;-77
2024/01/07 08:54:48;;;;;;;;;;;281.90;2278.40;;;;;;4976658;28;20022;-76
2024/01/07 08:57:13;;;;;;;;;;;281.90;2278.40;;;;;;4976660;28;19991;-77
2024/01/07 08:59:39;;;;;;;;;;;281.80;2278.40;;;;;;4960292;28;20026;-77
2024/01/07 09:02:05;;;;;;;;;;;281.80;2278.40;;;;;;4959422;28;20419;-77
2024/01/07 09:04:30;;;;;;;;;;;281.80;2278.40;;;;;;4959952;28;19913;-77
2024/01/07 09:06:56;;;;;;;;;;;281.80;2278.40;;;;;;4974627;28;20309;-75
2024/01/07 09:09:22;;;;;;;;;;;281.80;2278.40;;;;;;4976342;28;19909;-73
2024/01/07 09:11:47;;;;;;;;;;;281.70;2278.40;;;;;;4975971;28;20387;-74
2024/01/07 09:14:14;;;;;;;;;;;281.60;2278.40;;;;;;4975790;28;19917;-77
2024/01/07 09:16:40;;;;;;;;;;;256.90;2252.80;;;;;;4962048;28;20495;-74
2024/01/07 09:19:05;;;;;;;;;;;256.90;2252.80;;;;;;4958908;28;19997;-74
2024/01/07 09:21:31;;;;;;;;;;;281.60;2278.40;;;;;;4975966;28;19922;-76
2024/01/07 09:23:57;;;;;;;;;;;281.70;2278.40;;;;;;4958405;28;19910;-78
2024/01/07 09:26:22;;;;;;;;;;;281.70;2278.40;;;;;;4958562;28;19909;-75
2024/01/07 09:28:48;;;;;;;;;;;281.70;2278.40;;;;;;4976406;28;19923;-80
2024/01/07 09:31:13;;;;;;;;;;;281.70;2278.40;;;;;;4977095;28;20323;-77
2024/01/07 09:33:39;;;;;;;;;;;281.80;2278.40;;;;;;4958674;28;19913;-74
2024/01/07 09:36:06;;;;;;;;;;;281.90;2278.40;;;;;;4976084;28;19937;-75
2024/01/07 09:38:32;;;;;;;;;;;281.90;2278.40;;;;;;4976104;28;19914;-73
2024/01/07 09:40:57;;;;;;;;;;;282.00;2278.40;;;;;;4976423;28;19933;-73
2024/01/07 09:43:23;;;;;;;;;;;282.00;2278.40;;;;;;4975682;28;19906;-73
2024/01/07 09:45:51;;;;;;;;;;;282.00;2278.40;;;;;;4975181;28;19956;-73
2024/01/07 09:48:17;;;;;;;;;;;282.00;2278.40;;;;;;4975547;28;20264;-73
2024/01/07 09:50:43;;;;;;;;;;;282.10;2278.40;;;;;;4975254;28;19910;-76
2024/01/07 09:53:13;;;;;;;;;;;282.20;2278.40;;;;;;4975266;28;19917;-75
2024/01/07 09:56:00;;;;;;;;;;;282.30;2278.40;;;;;;4975754;28;19914;-77
2024/01/07 09:58:26;;;;;;;;;;;282.30;2278.40;;;;;;4975507;28;19914;-80
2024/01/07 10:00:52;;;;;;;;;;;282.40;2278.40;;;;;;4976247;28;19929;-74
2024/01/07 10:03:17;;;;;;;;;;;282.30;2278.40;;;;;;4974779;28;19910;-73
2024/01/07 10:05:43;;;;;;;;;;;282.40;2278.40;;;;;;4975683;28;20302;-75
2024/01/07 10:08:09;;;;;;;;;;;282.40;2278.40;;;;;;4975380;28;19910;-74
2024/01/07 10:10:35;;;;;;;;;;;282.30;2278.40;;;;;;4957670;28;20488;-79
2024/01/07 10:13:00;;;;;;;;;;;281.90;2278.40;;;;;;4975187;28;20275;-77
2024/01/07 10:15:26;;;;;;;;;;;282.40;2278.40;;;;;;4957482;28;19917;-77
2024/01/07 10:17:54;;;;;;;;;;;282.40;2278.40;;;;;;4957825;28;19914;-77
2024/01/07 10:20:20;;;;;;;;;;;282.50;2278.40;;;;;;4965192;28;19933;-76
2024/01/07 10:22:47;;;;;;;;;;;282.50;2278.40;;;;;;4957367;28;20368;-79
2024/01/07 10:25:13;;;;;;;;;;;282.50;2278.40;;;;;;4957369;28;20008;-78
2024/01/07 10:27:38;;;;;;;;;;;307.20;2304.00;;;;;;4975021;28;19906;-75
2024/01/07 10:30:04;;;;;;;;;;;307.30;2304.00;;;;;;4970723;28;20283;-77
2024/01/07 10:32:30;;;;;;;;;;;307.40;2304.00;;;;;;4967173;28;20356;-75
2024/01/07 10:35:01;;;;;;;;;;;307.50;2304.00;;;;;;4975139;28;19953;-78
2024/01/07 10:37:27;;;;;;;;;;;307.50;2304.00;;;;;;4975097;28;19978;-77
2024/01/07 10:39:53;;;;;;;;;;;307.50;2304.00;;;;;;4974938;28;19953;-77
2024/01/07 10:42:19;;;;;;;;;;;307.60;2304.00;;;;;;4971288;28;20439;-76
2024/01/07 10:44:45;;;;;;;;;;;307.80;2304.00;;;;;;4957545;28;19989;-76
2024/01/07 10:47:13;;;;;;;;;;;307.50;2304.00;;;;;;4974451;28;19910;-78
2024/01/07 10:49:40;;;;;;;;;;;307.60;2304.00;;;;;;4974666;28;19907;-75
2024/01/07 10:52:07;;;;;;;;;;;307.60;2304.00;;;;;;4974304;28;19918;-73
2024/01/07 10:54:34;;;;;;;;;;;307.70;2304.00;;;;;;4974938;28;19996;-73
2024/01/07 10:57:04;;;;;;;;;;;307.70;2304.00;;;;;;4974644;28;19917;-74
2024/01/07 10:59:31;;;;;;;;;;;307.80;2304.00;;;;;;4957041;28;19906;-77
2024/01/07 11:01:57;;;;;;;;;;;307.80;2304.00;;;;;;4957703;28;19910;-77
2024/01/07 11:04:25;;;;;;;;;;;307.50;2304.00;;;;;;4975090;28;20253;-76
2024/01/07 11:06:55;;;;;;;;;;;307.80;2304.00;;;;;;4973646;28;19949;-75
2024/01/07 11:09:26;;;;;;;;;;;307.80;2304.00;;;;;;4956343;28;20020;-74
2024/01/07 11:11:52;;;;;;;;;;;307.80;2304.00;;;;;;4974282;28;19906;-76
2024/01/07 11:14:36;;;;;;;;;;;307.80;2304.00;;;;;;4974222;28;19917;-78
2024/01/07 11:17:02;;;;;;;;;;;307.80;2304.00;;;;;;4966237;28;19961;-77
2024/01/07 11:19:28;;;;;;;;;;;307.70;2304.00;;;;;;4974004;28;19958;-75
2024/01/07 11:22:14;;;;;;;;;;;307.80;2304.00;;;;;;4974016;28;19980;-77
2024/01/07 11:24:40;;;;;;;;;;;307.70;2304.00;;;;;;4971818;28;19914;-75
2024/01/07 11:27:08;;;;;;;;;;;307.60;2304.00;;;;;;4972083;28;19913;-74
2024/01/07 11:29:35;;;;;;;;;;;307.80;2304.00;;;;;;4974184;28;19917;-74
2024/01/07 11:32:00;;;;;;;;;;;307.80;2304.00;;;;;;4974346;28;19906;-75
2024/01/07 11:34:43;;;;;;;;;;;307.80;2304.00;;;;;;4956785;28;19913;-75
2024/01/07 11:37:13;;;;;;;;;;;307.90;2304.00;;;;;;4955131;28;19957;-75
2024/01/07 11:39:48;;;;;;;;;;;308.00;2304.00;;;;;;4973806;28;20356;-76
2024/01/07 11:42:14;;;;;;;;;;;308.10;2304.00;;;;;;4972936;28;20025;-77
2024/01/07 11:44:50;;;;;;;;;;;308.10;2304.00;;;;;;4955973;28;20309;-75
2024/01/07 11:47:20;;;;;;;;;;;332.90;2329.60;;;;;;4973860;28;19957;-77
2024/01/07 11:49:46;;;;;;;;;;;332.90;2329.60;;;;;;4976589;28;19906;-78
2024/01/07 11:52:12;;;;;;;;;;;332.90;2329.60;;;;;;4976766;28;19917;-77
2024/01/07 11:54:38;;;;;;;;;;;333.00;2329.60;;;;;;4974401;28;20364;-79
2024/01/07 11:57:04;;;;;;;;;;;333.00;2329.60;;;;;;4956808;28;19965;-77
2024/01/07 11:59:30;;;;;;;;;;;332.90;2329.60;;;;;;4957955;28;19913;-75
2024/01/07 12:01:56;;;;;;;;;;;332.90;2329.60;;;;;;4974116;28;19906;-75
2024/01/07 12:04:21;;;;;;;;;;;332.90;2329.60;;;;;;4974348;28;19906;-74
2024/01/07 12:06:48;;;;;;;;;;;332.90;2329.60;;;;;;4973879;28;19910;-75
2024/01/07 12:09:14;;;;;;;;;;;332.90;2329.60;;;;;;4973834;28;19907;-75
2024/01/07 12:11:41;;;;;;;;;;;332.90;2329.60;;;;;;4973892;28;19913;-73
2024/01/07 12:14:07;;;;;;;;;;;332.90;2329.60;;;;;;4973251;28;19949;-75
2024/01/07 12:16:32;;;;;;;;;;;332.90;2329.60;;;;;;4956026;28;19906;-74
2024/01/07 12:18:59;;;;;;;;;;;332.90;2329.60;;;;;;4973934;28;19957;-76
2024/01/07 12:21:26;;;;;;;;;;;332.90;2329.60;;;;;;4973271;28;19922;-76
2024/01/07 12:23:52;;;;;;;;;;;332.80;2329.60;;;;;;4973162;28;20404;-76
2024/01/07 12:26:19;;;;;;;;;;;308.10;2304.00;;;;;;4973855;28;20005;-77
2024/01/07 12:28:44;;;;;;;;;;;308.10;2304.00;;;;;;4966286;28;19906;-76
2024/01/07 12:31:10;;;;;;;;;;;307.90;2176.00;;;;;;4977819;28;20389;-74
2024/01/07 12:33:41;;;;;;;;;;;307.80;2304.00;;;;;;4977046;28;19920;-74
2024/01/07 12:36:07;;;;;;;;;;;307.80;2304.00;;;;;;4976465;28;19906;-75
2024/01/07 12:38:33;;;;;;;;;;;307.70;2304.00;;;;;;4977024;28;19914;-77
2024/01/07 12:40:58;;;;;;;;;;;307.70;2304.00;;;;;;4976421;28;20376;-77
2024/01/07 12:43:24;;;;;;;;;;;307.70;2304.00;;;;;;4976794;28;19907;-74
2024/01/07 12:45:50;;;;;;;;;;;307.60;2304.00;;;;;;4977425;28;20348;-76
2024/01/07 12:48:15;;;;;;;;;;;307.60;2304.00;;;;;;4959615;28;20264;-79
2024/01/07 12:50:41;;;;;;;;;;;307.60;2304.00;;;;;;4976418;28;19910;-77
2024/01/07 12:53:07;;;;;;;;;;;307.60;1945.60;;;;;;4976738;28;19910;-77
2024/01/07 12:55:33;;;;;;;;;;;307.60;2124.80;;;;;;4958110;28;19916;-78
2024/01/07 12:57:58;;;;;;;;;;;307.50;2022.40;;;;;;4976823;28;20005;-82
2024/01/07 13:00:25;;;;;;;;;;;307.50;2124.80;;;;;;4976876;28;19996;-77
2024/01/07 13:02:50;;;;;;;;;;;307.30;1971.20;;;;;;4958715;28;19906;-77
2024/01/07 13:05:16;;;;;;;;;;;307.20;2304.00;;;;;;4958462;28;20451;-78
2024/01/07 13:07:42;;;;;;;;;;;307.20;2304.00;;;;;;4959347;28;19920;-80
2024/01/07 13:10:09;;;;;;;;;;;282.50;2278.40;;;;;;4977027;28;19996;-79
2024/01/07 13:12:35;;;;;;;;;;;282.50;2278.40;;;;;;4976552;28;19906;-78
2024/01/07 13:15:01;;;;;;;;;;;282.50;2278.40;;;;;;4976342;28;19906;-78
2024/01/07 13:17:26;;;;;;;;;;;282.40;2278.40;;;;;;4958764;28;19965;-77
2024/01/07 13:19:52;;;;;;;;;;;282.40;2150.40;;;;;;4976572;28;19949;-79
2024/01/07 13:22:18;;;;;;;;;;;282.40;2278.40;;;;;;4975983;28;19929;-77
2024/01/07 13:24:44;;;;;;;;;;;282.30;2278.40;;;;;;4958973;28;19910;-77
2024/01/07 13:27:09;;;;;;;;;;;282.20;1971.20;;;;;;4975936;28;20288;-77
2024/01/07 13:29:35;;;;;;;;;;;282.20;2150.40;;;;;;4957379;28;19914;-77
2024/01/07 13:32:01;;;;;;;;;;;282.20;1920.00;;;;;;4974805;28;19913;-80
2024/01/07 13:34:27;;;;;;;;;;;282.20;2073.60;;;;;;4959005;28;19906;-78
2024/01/07 13:36:53;;;;;;;;;;;282.20;2278.40;;;;;;4958657;28;19921;-78